Time;durP1;ratioP1;P1;durP2;ratioP2;P2;SDS_P1;SDS_P2;PMS_P1;PMS_P2;Temp;Humidity;BMP_temperature;BMP_pressure;BME280_temperature;BME280_humidity;BME280_pressure;Samples;Min_cycle;Max_cycle;Signal;HPM_P1;HPM_P2
2021/06/06 00:00:35;;;;;;;17.50;15.17;;;17.40;99.90;;;;;;5082070;28;20482;-84
2021/06/06 00:03:02;;;;;;;15.40;13.80;;;17.40;99.90;;;;;;5091352;28;20439;-84
2021/06/06 00:05:32;;;;;;;15.53;13.90;;;17.40;99.90;;;;;;5094094;28;20830;-84
2021/06/06 00:08:00;;;;;;;15.80;14.13;;;17.40;99.90;;;;;;5092409;28;20444;-85
2021/06/06 00:10:26;;;;;;;14.73;13.33;;;17.40;99.90;;;;;;5092492;28;20471;-85
2021/06/06 00:12:52;;;;;;;15.33;13.93;;;17.40;99.90;;;;;;5093180;28;20439;-86
2021/06/06 00:15:19;;;;;;;16.20;14.60;;;17.40;99.90;;;;;;5094050;28;20446;-84
2021/06/06 00:17:45;;;;;;;15.20;13.60;;;17.40;99.90;;;;;;5089669;28;20447;-85
2021/06/06 00:20:14;;;;;;;17.47;14.63;;;17.40;99.90;;;;;;5091215;28;20509;-85
2021/06/06 00:22:41;;;;;;;15.27;13.97;;;17.50;99.90;;;;;;5092893;28;20514;-84
2021/06/06 00:25:12;;;;;;;15.67;14.07;;;17.50;99.90;;;;;;5103722;28;20439;-85
2021/06/06 00:27:38;;;;;;;15.33;13.80;;;17.50;99.90;;;;;;5104678;28;20440;-85
2021/06/06 00:30:06;;;;;;;15.50;14.00;;;17.40;99.90;;;;;;5103642;28;20455;-85
2021/06/06 00:32:32;;;;;;;14.60;13.20;;;17.50;99.90;;;;;;5107061;28;20426;-85
2021/06/06 00:34:58;;;;;;;16.00;13.10;;;17.50;99.90;;;;;;5105751;28;20436;-84
2021/06/06 00:37:25;;;;;;;13.70;12.30;;;17.50;99.90;;;;;;5093734;28;20437;-85
2021/06/06 00:39:51;;;;;;;13.43;12.03;;;17.50;99.90;;;;;;5095638;28;20459;-86
2021/06/06 00:42:21;;;;;;;13.27;11.87;;;17.50;99.90;;;;;;5090870;28;20789;-85
2021/06/06 00:44:49;;;;;;;14.50;13.13;;;17.50;99.90;;;;;;5085657;28;20945;-85
2021/06/06 00:47:15;;;;;;;14.43;13.13;;;17.50;99.90;;;;;;5080822;28;20444;-85
2021/06/06 00:49:41;;;;;;;14.23;12.70;;;17.40;99.90;;;;;;5090101;28;20473;-84
2021/06/06 00:52:11;;;;;;;14.00;12.80;;;17.50;99.90;;;;;;5085772;28;20436;-84
2021/06/06 00:54:42;;;;;;;15.60;13.00;;;17.40;99.90;;;;;;5091722;28;20445;-84
2021/06/06 00:57:13;;;;;;;13.00;11.60;;;17.40;99.90;;;;;;5076278;28;20438;-85
2021/06/06 00:59:45;;;;;;;13.10;11.77;;;17.40;99.90;;;;;;5076826;28;20466;-84
2021/06/06 01:02:12;;;;;;;13.73;12.43;;;17.40;99.90;;;;;;5085973;28;21019;-85
2021/06/06 01:04:40;;;;;;;13.00;11.60;;;17.40;99.90;;;;;;5086642;28;20441;-85
2021/06/06 01:07:07;;;;;;;12.23;11.10;;;17.50;99.90;;;;;;5078812;28;20964;-84
2021/06/06 01:09:33;;;;;;;11.60;10.57;;;17.50;99.90;;;;;;5079560;28;20450;-84
2021/06/06 01:12:05;;;;;;;10.47;9.43;;;17.50;99.90;;;;;;5084094;28;20435;-85
2021/06/06 01:14:38;;;;;;;12.20;10.17;;;17.50;99.90;;;;;;5084188;28;20483;-85
2021/06/06 01:17:10;;;;;;;12.00;10.80;;;17.50;99.90;;;;;;5084269;28;20437;-85
2021/06/06 01:19:46;;;;;;;10.70;9.60;;;17.50;99.90;;;;;;5083861;28;20467;-85
2021/06/06 01:22:37;;;;;;;11.60;10.60;;;17.50;99.90;;;;;;5082227;28;20481;-85
2021/06/06 01:25:10;;;;;;;11.17;10.17;;;17.50;99.90;;;;;;5084438;28;20491;-85
2021/06/06 01:27:39;;;;;;;11.00;9.90;;;17.50;99.90;;;;;;5088260;28;20940;-85
2021/06/06 01:30:10;;;;;;;10.60;9.70;;;17.40;99.90;;;;;;5097652;28;20481;-85
2021/06/06 01:32:41;;;;;;;12.07;10.87;;;17.40;99.90;;;;;;5089342;28;21010;-85
2021/06/06 01:35:11;;;;;;;11.30;10.20;;;17.50;99.90;;;;;;5085394;28;20432;-85
2021/06/06 01:37:44;;;;;;;10.57;9.47;;;17.40;99.90;;;;;;5089249;28;20440;-85
2021/06/06 01:40:17;;;;;;;8.90;8.10;;;17.40;99.90;;;;;;5085847;28;20518;-85
2021/06/06 01:42:47;;;;;;;9.87;8.97;;;17.40;99.90;;;;;;5096825;28;20448;-84
2021/06/06 01:45:17;;;;;;;10.00;9.10;;;17.50;99.90;;;;;;5103702;28;20430;-85
2021/06/06 01:47:46;;;;;;;10.00;9.20;;;17.50;99.90;;;;;;5087983;28;20471;-85
2021/06/06 01:50:19;;;;;;;9.43;8.60;;;17.50;99.90;;;;;;5079221;28;20464;-85
2021/06/06 01:52:46;;;;;;;11.17;9.70;;;17.40;99.90;;;;;;5075570;28;20446;-85
2021/06/06 01:55:18;;;;;;;9.07;8.27;;;17.40;99.90;;;;;;5075365;28;20874;-84
2021/06/06 01:57:45;;;;;;;9.27;8.27;;;17.40;99.90;;;;;;5074973;28;20435;-85
2021/06/06 02:00:17;;;;;;;8.47;7.80;;;17.40;99.90;;;;;;5074294;28;20478;-85
2021/06/06 02:02:43;;;;;;;9.53;6.97;;;17.40;99.90;;;;;;5084346;28;20450;-85
2021/06/06 02:05:14;;;;;;;9.97;8.97;;;17.50;99.90;;;;;;5093806;28;20450;-84
2021/06/06 02:07:42;;;;;;;9.57;8.77;;;17.50;99.90;;;;;;5105577;28;20733;-86
2021/06/06 02:10:16;;;;;;;9.07;8.23;;;17.40;99.90;;;;;;5092635;28;20466;-85
2021/06/06 02:12:47;;;;;;;8.37;7.67;;;17.40;99.90;;;;;;5083943;28;20447;-84
2021/06/06 02:15:15;;;;;;;7.57;6.97;;;17.40;99.90;;;;;;5083825;28;20439;-85
2021/06/06 02:17:42;;;;;;;8.27;7.47;;;17.40;99.90;;;;;;5085253;28;20442;-85
2021/06/06 02:20:10;;;;;;;9.40;8.40;;;17.30;99.90;;;;;;5085629;28;20471;-85
2021/06/06 02:22:36;;;;;;;8.50;7.80;;;17.40;99.90;;;;;;5090622;28;20439;-85
2021/06/06 02:25:05;;;;;;;8.23;7.43;;;17.40;99.90;;;;;;5087444;28;20443;-84
2021/06/06 02:27:35;;;;;;;9.17;8.37;;;17.40;99.90;;;;;;5097919;28;20440;-85
2021/06/06 02:30:13;;;;;;;10.50;8.70;;;17.30;99.90;;;;;;5087305;28;20486;-85
2021/06/06 02:32:47;;;;;;;8.07;7.30;;;17.30;99.90;;;;;;5086398;28;20840;-85
2021/06/06 02:35:20;;;;;;;8.33;7.53;;;17.30;99.90;;;;;;5091181;28;20443;-84
2021/06/06 02:37:52;;;;;;;8.13;7.37;;;17.30;99.90;;;;;;5089691;28;20433;-85
2021/06/06 02:40:23;;;;;;;8.00;7.30;;;17.20;99.90;;;;;;5089676;28;20537;-85
2021/06/06 02:42:52;;;;;;;8.13;7.43;;;17.30;99.90;;;;;;5082591;28;20862;-85
2021/06/06 02:45:23;;;;;;;8.03;7.17;;;17.20;99.90;;;;;;5078759;28;20444;-84
2021/06/06 02:47:53;;;;;;;7.90;7.20;;;17.30;99.90;;;;;;5080361;28;20448;-84
2021/06/06 02:50:24;;;;;;;8.23;7.43;;;17.30;99.90;;;;;;5077396;28;20505;-84
2021/06/06 02:52:55;;;;;;;8.07;7.37;;;17.30;99.90;;;;;;5082101;28;20441;-85
2021/06/06 02:55:24;;;;;;;8.53;7.73;;;17.30;99.90;;;;;;5076602;28;20436;-84
2021/06/06 02:57:56;;;;;;;7.43;6.73;;;17.40;99.90;;;;;;5079459;28;20446;-85
2021/06/06 03:00:30;;;;;;;7.90;7.20;;;17.40;99.90;;;;;;5087215;28;20470;-84
2021/06/06 03:03:01;;;;;;;8.13;7.40;;;17.40;99.90;;;;;;5089620;28;20445;-84
2021/06/06 03:05:30;;;;;;;7.53;6.83;;;17.40;99.90;;;;;;5088952;28;20423;-85
2021/06/06 03:07:59;;;;;;;7.97;7.23;;;17.40;99.90;;;;;;5087859;28;20435;-85
2021/06/06 03:10:28;;;;;;;8.20;7.47;;;17.30;99.90;;;;;;5089104;28;20892;-83
2021/06/06 03:12:57;;;;;;;8.30;7.20;;;17.30;99.90;;;;;;5075226;28;20935;-85
2021/06/06 03:15:30;;;;;;;8.50;7.70;;;17.30;99.90;;;;;;5075529;28;20444;-85
2021/06/06 03:17:57;;;;;;;7.70;7.00;;;17.30;99.90;;;;;;5081159;28;20427;-84
2021/06/06 03:20:31;;;;;;;10.70;7.87;;;17.30;99.90;;;;;;5087857;28;20474;-83
2021/06/06 03:22:59;;;;;;;8.30;7.40;;;17.30;99.90;;;;;;5089253;28;20451;-83
2021/06/06 03:25:35;;;;;;;8.63;7.10;;;17.30;99.90;;;;;;5093161;28;20457;-84
2021/06/06 03:28:03;;;;;;;8.73;7.43;;;17.30;99.90;;;;;;5088332;28;20430;-83
2021/06/06 03:30:40;;;;;;;11.10;8.20;;;17.30;99.90;;;;;;5084696;28;20835;-84
2021/06/06 03:33:09;;;;;;;10.33;7.67;;;17.20;99.90;;;;;;5087511;28;20466;-84
2021/06/06 03:35:36;;;;;;;10.43;8.03;;;17.20;99.90;;;;;;5091336;28;20436;-83
2021/06/06 03:38:05;;;;;;;9.30;8.40;;;17.10;99.90;;;;;;5090727;28;20922;-83
2021/06/06 03:40:35;;;;;;;9.47;8.37;;;17.10;99.90;;;;;;5109163;22;20525;-86
2021/06/06 03:43:02;;;;;;;9.20;8.30;;;17.10;99.90;;;;;;5086458;28;20538;-86
2021/06/06 03:45:28;;;;;;;10.13;7.03;;;17.10;99.90;;;;;;5071267;28;20442;-86
2021/06/06 03:47:58;;;;;;;7.83;7.03;;;17.10;99.90;;;;;;5071664;28;20593;-86
2021/06/06 03:50:25;;;;;;;10.43;7.60;;;17.10;99.90;;;;;;5075252;28;20581;-85
2021/06/06 03:52:52;;;;;;;9.27;7.43;;;17.00;99.90;;;;;;5085656;28;20782;-87
2021/06/06 03:55:20;;;;;;;8.30;7.50;;;17.00;99.90;;;;;;5086862;28;20532;-86
2021/06/06 03:57:46;;;;;;;8.93;7.53;;;17.10;99.90;;;;;;5086313;28;20824;-86
2021/06/06 04:00:16;;;;;;;7.93;7.03;;;17.00;99.90;;;;;;5086074;28;20455;-86
2021/06/06 04:02:43;;;;;;;8.97;7.10;;;17.00;99.90;;;;;;5086644;28;20559;-86
2021/06/06 04:05:12;;;;;;;8.23;7.00;;;17.00;99.90;;;;;;5085870;28;20431;-86
2021/06/06 04:07:38;;;;;;;8.13;6.43;;;17.00;99.90;;;;;;5085885;28;20936;-86
2021/06/06 04:10:05;;;;;;;11.20;7.57;;;17.00;99.90;;;;;;5083904;28;20442;-86
2021/06/06 04:12:32;;;;;;;9.70;6.93;;;17.00;99.90;;;;;;5085803;28;20454;-86
2021/06/06 04:14:58;;;;;;;6.23;5.63;;;17.00;99.90;;;;;;5089067;28;20444;-86
2021/06/06 04:17:24;;;;;;;8.30;6.70;;;17.00;99.90;;;;;;5090609;28;20438;-87
2021/06/06 04:19:53;;;;;;;13.10;6.03;;;16.90;99.90;;;;;;5091873;28;20453;-86
2021/06/06 04:22:20;;;;;;;6.10;5.50;;;17.00;99.90;;;;;;5090139;28;20471;-86
2021/06/06 04:24:46;;;;;;;6.10;5.50;;;17.00;99.90;;;;;;5089164;28;20450;-87
2021/06/06 04:27:13;;;;;;;7.27;6.53;;;17.00;99.90;;;;;;5087621;28;20443;-86
2021/06/06 04:29:39;;;;;;;6.47;5.73;;;17.00;99.90;;;;;;5085413;28;20491;-87
2021/06/06 04:32:06;;;;;;;8.30;5.30;;;17.10;99.90;;;;;;5084804;28;20455;-87
2021/06/06 04:34:34;;;;;;;7.20;5.23;;;17.10;99.90;;;;;;5081786;28;20450;-86
2021/06/06 04:37:00;;;;;;;6.50;5.20;;;17.10;99.90;;;;;;5083676;28;20449;-86
2021/06/06 04:39:27;;;;;;;5.37;4.87;;;17.10;99.90;;;;;;5083192;28;20813;-86
2021/06/06 04:41:54;;;;;;;6.70;6.00;;;17.10;99.90;;;;;;5100810;28;20479;-86
2021/06/06 04:44:20;;;;;;;8.27;5.37;;;17.10;99.90;;;;;;5087117;28;20558;-86
2021/06/06 04:46:46;;;;;;;8.40;6.80;;;17.10;99.90;;;;;;5084793;28;20441;-87
2021/06/06 04:49:12;;;;;;;8.30;6.20;;;17.00;99.90;;;;;;5086824;28;20949;-86
2021/06/06 04:51:38;;;;;;;11.97;9.60;;;17.00;99.90;;;;;;5102775;28;20478;-86
2021/06/06 04:54:04;;;;;;;10.00;6.43;;;17.00;99.90;;;;;;5102715;28;20419;-87
2021/06/06 04:56:32;;;;;;;9.90;6.50;;;16.90;99.90;;;;;;5101784;28;20457;-86
2021/06/06 04:58:58;;;;;;;9.47;6.93;;;16.80;99.90;;;;;;5088458;28;20452;-86
2021/06/06 05:01:25;;;;;;;13.63;8.00;;;16.80;99.90;;;;;;5064431;28;21026;-87
2021/06/06 05:03:51;;;;;;;10.07;6.87;;;16.80;99.90;;;;;;5083802;28;20443;-87
2021/06/06 05:06:18;;;;;;;8.17;7.00;;;16.70;99.90;;;;;;5083379;28;20467;-87
2021/06/06 05:08:45;;;;;;;9.27;6.93;;;16.70;99.90;;;;;;5083321;28;20443;-86
2021/06/06 05:11:11;;;;;;;9.90;6.00;;;16.80;99.90;;;;;;5082711;28;20958;-87
2021/06/06 05:13:39;;;;;;;8.27;6.87;;;16.80;99.90;;;;;;5083267;28;20439;-86
2021/06/06 05:16:06;;;;;;;13.00;6.30;;;16.80;99.90;;;;;;5083322;28;20440;-87
2021/06/06 05:18:32;;;;;;;10.50;5.80;;;16.90;99.90;;;;;;5083013;28;20947;-87
2021/06/06 05:20:59;;;;;;;6.63;5.90;;;16.90;99.90;;;;;;5083514;28;20491;-87
2021/06/06 05:23:28;;;;;;;8.37;6.27;;;16.90;99.90;;;;;;5083511;28;20438;-86
2021/06/06 05:25:55;;;;;;;6.80;5.70;;;17.00;99.90;;;;;;5083772;28;20803;-86
2021/06/06 05:28:25;;;;;;;8.07;6.10;;;16.80;99.90;;;;;;5082962;28;20966;-86
2021/06/06 05:30:53;;;;;;;9.93;6.40;;;16.90;99.90;;;;;;5087351;28;20835;-87
2021/06/06 05:33:20;;;;;;;9.20;6.60;;;17.00;99.90;;;;;;5082848;28;20498;-87
2021/06/06 05:35:46;;;;;;;7.80;6.53;;;17.00;99.90;;;;;;5094211;28;20431;-87
2021/06/06 05:38:14;;;;;;;6.93;5.43;;;17.00;99.90;;;;;;5085309;28;20441;-86
2021/06/06 05:40:41;;;;;;;8.70;6.37;;;17.00;99.90;;;;;;5084225;28;20535;-87
2021/06/06 05:43:08;;;;;;;7.10;6.40;;;17.00;99.90;;;;;;5085885;28;20469;-87
2021/06/06 05:45:35;;;;;;;8.23;7.10;;;17.10;99.90;;;;;;5087775;28;20454;-87
2021/06/06 05:48:04;;;;;;;10.83;6.97;;;17.10;99.90;;;;;;5082895;28;20466;-87
2021/06/06 05:50:33;;;;;;;9.97;7.00;;;17.10;99.90;;;;;;5091176;28;20942;-88
2021/06/06 05:52:59;;;;;;;8.27;7.23;;;17.00;99.90;;;;;;5084015;28;21036;-85
2021/06/06 05:55:26;;;;;;;7.17;6.47;;;17.10;99.90;;;;;;5081731;28;20446;-85
2021/06/06 05:57:53;;;;;;;8.43;7.63;;;17.10;99.90;;;;;;5093392;28;20423;-86
2021/06/06 06:00:22;;;;;;;9.67;7.80;;;17.10;99.90;;;;;;5098596;28;20446;-86
2021/06/06 06:02:48;;;;;;;7.87;7.10;;;17.20;99.90;;;;;;5080099;28;20444;-85
2021/06/06 06:05:17;;;;;;;10.07;7.60;;;17.20;99.90;;;;;;5083404;28;20436;-87
2021/06/06 06:07:43;;;;;;;9.20;8.03;;;17.20;99.90;;;;;;5091632;28;20499;-84
2021/06/06 06:10:11;;;;;;;8.50;7.40;;;17.20;99.90;;;;;;5091744;28;20440;-86
2021/06/06 06:12:38;;;;;;;9.50;8.53;;;17.20;99.90;;;;;;5085239;28;20464;-86
2021/06/06 06:15:06;;;;;;;9.40;8.23;;;17.20;99.90;;;;;;5087429;28;20435;-86
2021/06/06 06:17:32;;;;;;;9.37;8.33;;;17.20;99.90;;;;;;5086411;28;20437;-86
2021/06/06 06:19:59;;;;;;;10.73;9.10;;;17.10;99.90;;;;;;5086561;28;20438;-86
2021/06/06 06:22:27;;;;;;;7.97;7.20;;;17.10;99.90;;;;;;5085142;28;20545;-87
2021/06/06 06:24:53;;;;;;;11.17;9.17;;;17.20;99.90;;;;;;5087292;28;20435;-86
2021/06/06 06:27:19;;;;;;;10.33;8.90;;;17.20;99.90;;;;;;5083666;28;20784;-85
2021/06/06 06:29:47;;;;;;;10.33;9.33;;;17.20;99.90;;;;;;5084994;28;20437;-86
2021/06/06 06:32:14;;;;;;;10.03;9.00;;;17.20;99.90;;;;;;5087077;28;20539;-85
2021/06/06 06:34:40;;;;;;;12.50;9.03;;;17.30;99.90;;;;;;5087109;28;20440;-86
2021/06/06 06:37:06;;;;;;;11.23;8.87;;;17.30;99.90;;;;;;5085426;28;20743;-85
2021/06/06 06:39:34;;;;;;;9.20;8.20;;;17.30;99.90;;;;;;5091550;28;20435;-85
2021/06/06 06:42:00;;;;;;;10.27;9.27;;;17.30;99.90;;;;;;5085363;28;20528;-86
2021/06/06 06:44:26;;;;;;;9.00;8.13;;;17.30;99.90;;;;;;5091735;28;21360;-86
2021/06/06 06:46:53;;;;;;;8.30;7.50;;;17.30;99.90;;;;;;5091444;28;20894;-86
2021/06/06 06:49:19;;;;;;;8.67;7.93;;;17.30;99.90;;;;;;5092910;28;20437;-87
2021/06/06 06:51:45;;;;;;;10.90;9.37;;;17.30;99.90;;;;;;5093492;28;20450;-86
2021/06/06 06:54:11;;;;;;;10.00;9.10;;;17.30;99.90;;;;;;5088200;28;20452;-86
2021/06/06 06:56:39;;;;;;;11.10;10.00;;;17.30;99.90;;;;;;5086441;28;20428;-86
2021/06/06 06:59:06;;;;;;;9.40;8.50;;;17.30;99.90;;;;;;5085444;28;20794;-85
2021/06/06 07:01:32;;;;;;;9.20;8.30;;;17.30;99.90;;;;;;5103501;28;20490;-86
2021/06/06 07:03:59;;;;;;;8.67;7.80;;;17.30;99.90;;;;;;5111534;28;20419;-84
2021/06/06 07:06:25;;;;;;;9.00;8.17;;;17.40;99.90;;;;;;5087720;28;20427;-85
2021/06/06 07:08:51;;;;;;;9.07;8.17;;;17.40;99.90;;;;;;5084233;28;20453;-86
2021/06/06 07:11:19;;;;;;;10.53;8.60;;;17.50;99.90;;;;;;5090456;28;20509;-85
2021/06/06 07:13:48;;;;;;;11.33;9.07;;;17.50;99.90;;;;;;5097498;28;20439;-85
2021/06/06 07:16:14;;;;;;;9.13;8.23;;;17.50;99.90;;;;;;5088253;28;20505;-85
2021/06/06 07:18:41;;;;;;;10.40;8.60;;;17.50;99.90;;;;;;5083640;28;20800;-86
2021/06/06 07:21:10;;;;;;;8.00;7.40;;;17.50;99.90;;;;;;5085497;28;20482;-86
2021/06/06 07:23:36;;;;;;;10.80;8.40;;;17.60;99.90;;;;;;5092301;28;20441;-86
2021/06/06 07:26:11;;;;;;;10.50;8.03;;;17.60;99.90;;;;;;5088494;28;20505;-86
2021/06/06 07:28:37;;;;;;;8.00;7.20;;;17.60;99.90;;;;;;5087777;28;20446;-86
2021/06/06 07:31:06;;;;;;;11.20;8.40;;;17.70;99.90;;;;;;5083968;28;20455;-86
2021/06/06 07:33:35;;;;;;;10.00;8.97;;;17.70;99.90;;;;;;5083693;28;20444;-86
2021/06/06 07:36:04;;;;;;;9.40;8.50;;;17.80;99.90;;;;;;5088882;28;20442;-86
2021/06/06 07:38:34;;;;;;;13.63;8.17;;;17.80;99.90;;;;;;5090555;28;20434;-86
2021/06/06 07:41:01;;;;;;;9.00;8.07;;;17.80;99.90;;;;;;5074035;28;20894;-86
2021/06/06 07:43:28;;;;;;;11.20;8.60;;;17.90;99.90;;;;;;5084893;28;20453;-86
2021/06/06 07:45:55;;;;;;;10.33;8.13;;;17.90;99.90;;;;;;5084183;28;20470;-87
2021/06/06 07:48:23;;;;;;;11.00;9.80;;;17.90;99.90;;;;;;5081287;28;20446;-86
2021/06/06 07:50:51;;;;;;;10.73;9.60;;;17.80;99.90;;;;;;5087908;28;20473;-86
2021/06/06 07:53:19;;;;;;;15.67;11.10;;;17.90;99.90;;;;;;5096892;28;20414;-91
2021/06/06 07:55:46;;;;;;;12.57;9.67;;;17.80;99.90;;;;;;5089148;28;20454;-87
2021/06/06 07:58:19;;;;;;;14.10;11.33;;;17.90;99.90;;;;;;5092212;28;20433;-87
2021/06/06 08:00:46;;;;;;;14.17;10.53;;;17.80;99.90;;;;;;5095797;28;20455;-86
2021/06/06 08:03:13;;;;;;;12.90;10.83;;;17.90;99.90;;;;;;5102390;28;20519;-87
2021/06/06 08:05:41;;;;;;;13.70;11.43;;;17.90;99.90;;;;;;5097178;28;20438;-86
2021/06/06 08:08:09;;;;;;;14.53;11.63;;;17.80;99.90;;;;;;5092329;28;20467;-88
2021/06/06 08:10:39;;;;;;;16.33;11.43;;;17.80;99.90;;;;;;5086139;28;20861;-88
2021/06/06 08:13:05;;;;;;;19.07;12.73;;;17.80;99.90;;;;;;5085608;28;20447;-88
2021/06/06 08:15:33;;;;;;;13.33;10.40;;;17.80;99.90;;;;;;5084429;28;20454;-87
2021/06/06 08:18:05;;;;;;;17.47;13.30;;;17.70;99.90;;;;;;5084227;28;20447;-87
2021/06/06 08:20:35;;;;;;;13.63;11.30;;;17.70;99.90;;;;;;5100135;28;20435;-88
2021/06/06 08:23:04;;;;;;;13.80;10.57;;;17.80;99.90;;;;;;5103966;28;20548;-89
2021/06/06 08:25:30;;;;;;;12.77;11.10;;;17.80;99.90;;;;;;5090184;28;20469;-89
2021/06/06 08:27:56;;;;;;;13.63;11.60;;;17.80;99.90;;;;;;5090898;28;20452;-90
2021/06/06 08:30:27;;;;;;;13.27;11.07;;;17.80;99.90;;;;;;5086824;28;20445;-88
2021/06/06 08:32:53;;;;;;;16.00;12.50;;;17.90;99.90;;;;;;5083831;28;20444;-88
2021/06/06 08:35:20;;;;;;;14.83;11.57;;;17.90;99.90;;;;;;5080727;28;20979;-88
2021/06/06 08:37:48;;;;;;;14.73;11.20;;;18.00;99.90;;;;;;5087569;28;20479;-88
2021/06/06 08:40:24;;;;;;;13.63;12.20;;;18.10;99.90;;;;;;5084687;28;20875;-88
2021/06/06 08:42:50;;;;;;;16.53;11.43;;;18.10;99.90;;;;;;5087271;28;20457;-88
2021/06/06 08:45:28;;;;;;;14.57;11.93;;;18.10;99.90;;;;;;5087197;28;20497;-88
2021/06/06 08:47:55;;;;;;;12.93;11.30;;;18.10;99.90;;;;;;5084902;28;20423;-88
2021/06/06 08:50:25;;;;;;;14.60;11.43;;;18.20;99.90;;;;;;5087457;28;20439;-87
2021/06/06 08:52:59;;;;;;;14.23;11.27;;;18.20;99.90;;;;;;5087495;28;20484;-86
2021/06/06 08:55:41;;;;;;;14.63;11.07;;;18.30;99.90;;;;;;5085800;28;20441;-87
2021/06/06 08:58:19;;;;;;;14.77;11.10;;;18.30;99.90;;;;;;5085642;28;20448;-87
2021/06/06 09:00:50;;;;;;;14.10;12.60;;;18.30;99.90;;;;;;5086775;28;20464;-86
2021/06/06 09:03:22;;;;;;;13.37;11.97;;;18.20;99.90;;;;;;5089408;28;20460;-87
2021/06/06 09:05:48;;;;;;;16.37;10.77;;;18.20;99.90;;;;;;5088528;28;20651;-87
2021/06/06 09:08:20;;;;;;;12.73;11.43;;;18.10;99.90;;;;;;5092661;28;20446;-87
2021/06/06 09:10:53;;;;;;;15.50;13.20;;;18.10;99.90;;;;;;5099315;28;20482;-88
2021/06/06 09:13:21;;;;;;;15.80;13.00;;;18.10;99.90;;;;;;5088561;28;20511;-87
2021/06/06 09:15:47;;;;;;;15.60;12.40;;;18.10;99.90;;;;;;5086598;28;21007;-87
2021/06/06 09:18:20;;;;;;;16.10;12.83;;;18.00;99.90;;;;;;5086096;28;20447;-87
2021/06/06 09:20:48;;;;;;;14.17;12.37;;;18.00;99.90;;;;;;5087677;28;20459;-87
2021/06/06 09:23:20;;;;;;;15.50;13.90;;;18.00;99.90;;;;;;5085026;28;20434;-88
2021/06/06 09:26:02;;;;;;;17.20;13.83;;;18.00;99.90;;;;;;5083509;28;20439;-86
2021/06/06 09:28:30;;;;;;;13.50;11.60;;;18.10;99.90;;;;;;5083534;28;20446;-88
2021/06/06 09:37:00;;;;;;;17.77;14.43;;;18.20;99.90;;;;;;2935735;26;20473;-89
2021/06/06 09:39:26;;;;;;;16.63;14.73;;;18.20;99.90;;;;;;4983218;28;20435;-87
2021/06/06 09:41:57;;;;;;;16.70;15.07;;;18.20;99.90;;;;;;5052882;28;20593;-88
2021/06/06 09:44:28;;;;;;;18.93;17.03;;;18.20;99.90;;;;;;5056150;28;20835;-87
2021/06/06 09:47:00;;;;;;;19.63;17.63;;;18.20;99.90;;;;;;5051818;28;20448;-88
2021/06/06 09:49:30;;;;;;;17.87;16.10;;;18.10;99.90;;;;;;5052736;28;20502;-88
2021/06/06 09:52:10;;;;;;;21.17;17.87;;;18.10;99.90;;;;;;5055772;28;20484;-88
2021/06/06 09:54:38;;;;;;;19.77;17.60;;;18.10;99.90;;;;;;5066576;28;20441;-86
2021/06/06 09:57:14;;;;;;;19.90;17.87;;;18.20;99.90;;;;;;5056166;28;20437;-88
2021/06/06 09:59:41;;;;;;;21.87;18.87;;;18.30;99.90;;;;;;5063402;28;20436;-87
2021/06/06 10:02:26;;;;;;;25.73;22.50;;;18.40;99.90;;;;;;5061927;28;20484;-86
2021/06/06 10:05:01;;;;;;;24.03;19.83;;;18.60;99.90;;;;;;5052373;28;20540;-87
2021/06/06 10:07:30;;;;;;;24.30;21.60;;;18.80;99.90;;;;;;5052144;28;20441;-88
2021/06/06 10:09:58;;;;;;;26.30;23.53;;;18.90;99.90;;;;;;5053142;28;20455;-86
2021/06/06 10:12:31;;;;;;;31.60;24.37;;;18.90;99.90;;;;;;5056315;28;20478;-88
2021/06/06 10:15:01;;;;;;;26.27;23.57;;;18.90;99.90;;;;;;5064849;28;20487;-87
2021/06/06 10:17:36;;;;;;;29.87;25.77;;;19.00;99.90;;;;;;5064155;28;20960;-86
2021/06/06 10:20:10;;;;;;;30.10;25.13;;;19.00;99.90;;;;;;5075857;28;20447;-87
2021/06/06 10:22:40;;;;;;;30.23;25.33;;;19.00;99.90;;;;;;5064827;28;20467;-90
2021/06/06 10:25:15;;;;;;;29.97;26.53;;;19.00;99.90;;;;;;5063185;28;20474;-88
2021/06/06 10:27:46;;;;;;;33.03;29.00;;;18.90;99.90;;;;;;5046938;28;20446;-89
2021/06/06 10:30:17;;;;;;;32.00;28.47;;;18.80;99.90;;;;;;5061930;28;20941;-88
2021/06/06 10:32:46;;;;;;;31.70;28.30;;;18.80;99.90;;;;;;5067359;28;20525;-87
2021/06/06 10:35:17;;;;;;;35.60;29.10;;;18.60;99.90;;;;;;5075838;28;20998;-87
2021/06/06 10:37:47;;;;;;;32.80;29.40;;;18.60;99.90;;;;;;5080830;28;20425;-87
2021/06/06 10:40:25;;;;;;;35.73;31.20;;;18.60;99.90;;;;;;5082244;28;20565;-87
2021/06/06 10:43:00;;;;;;;31.60;28.20;;;18.60;99.90;;;;;;5074833;28;20533;-88
2021/06/06 10:45:33;;;;;;;30.57;27.20;;;18.70;99.90;;;;;;5069334;28;20484;-86
2021/06/06 10:48:06;;;;;;;33.33;29.17;;;18.90;99.90;;;;;;5070928;28;20527;-87
2021/06/06 10:50:40;;;;;;;34.47;28.40;;;18.90;99.90;;;;;;5068465;28;20439;-88
2021/06/06 10:53:17;;;;;;;33.80;29.10;;;19.10;99.90;;;;;;5068592;28;20503;-87
2021/06/06 10:56:10;;;;;;;32.77;29.13;;;19.20;99.90;;;;;;5070131;28;20449;-87
2021/06/06 10:59:04;;;;;;;34.53;30.93;;;19.20;99.90;;;;;;5057264;28;20449;-88
2021/06/06 11:01:47;;;;;;;34.93;31.30;;;19.30;99.90;;;;;;5061384;28;20484;-88
2021/06/06 11:04:17;;;;;;;35.47;31.57;;;19.40;99.90;;;;;;5064090;28;20449;-89
2021/06/06 11:06:47;;;;;;;36.50;32.60;;;19.40;99.90;;;;;;5062488;28;20445;-88
2021/06/06 11:09:26;;;;;;;38.80;34.60;;;19.50;99.90;;;;;;5057277;28;20526;-88
2021/06/06 11:11:59;;;;;;;38.97;34.40;;;19.30;99.90;;;;;;5071111;28;20491;-88
2021/06/06 11:46:27;;;;;;;61.27;46.20;;;18.40;99.90;;;;;;4880039;29;20449;-88
2021/06/06 11:52:58;;;;;;;57.37;44.83;;;18.40;99.90;;;;;;5047620;28;20562;-89
2021/06/06 11:55:50;;;;;;;58.40;44.67;;;18.40;99.90;;;;;;4984995;28;20442;-87
2021/06/06 11:58:39;;;;;;;59.80;47.83;;;18.40;99.90;;;;;;4992321;28;20451;-87
2021/06/06 12:01:58;;;;;;;56.90;43.77;;;18.50;99.90;;;;;;5003632;28;20516;-87
2021/06/06 12:05:15;;;;;;;53.40;42.00;;;18.50;99.90;;;;;;5063685;28;20455;-87
2021/06/06 12:11:40;;;;;;;;;;;;;;;;;;;;;
2021/06/06 12:17:53;;;;;;;;;;;;;;;;;;;;;
2021/06/06 12:21:02;;;;;;;;;;;;;;;;;;;;;
2021/06/06 12:23:46;;;;;;;38.97;34.00;;;18.80;99.90;;;;;;5061863;28;20506;-88
2021/06/06 12:26:55;;;;;;;41.50;34.10;;;19.00;99.90;;;;;;5068740;28;20447;-88
2021/06/06 12:29:54;;;;;;;37.10;32.50;;;19.20;99.90;;;;;;5059484;28;20449;-89
2021/06/06 12:42:34;;;;;;;35.27;31.10;;;19.60;99.90;;;;;;4901902;29;20468;-89
2021/06/06 13:09:26;;;;;;;43.10;37.40;;;19.80;99.90;;;;;;4903268;29;20533;-90
2021/06/06 13:15:35;;;;;;;47.53;41.23;;;19.80;99.90;;;;;;4844069;28;20488;-88
2021/06/06 13:18:15;;;;;;;49.03;40.20;;;19.80;99.90;;;;;;4986593;28;20444;-88
2021/06/06 13:20:53;;;;;;;46.43;41.43;;;19.80;99.90;;;;;;5048204;28;20409;-85
2021/06/06 13:23:30;;;;;;;48.93;40.60;;;19.70;99.90;;;;;;5083959;28;20422;-86
2021/06/06 13:25:59;;;;;;;53.70;46.73;;;19.70;99.90;;;;;;5070783;28;20453;-88
2021/06/06 13:28:28;;;;;;;48.47;40.70;;;19.60;99.90;;;;;;5068621;28;20428;-87
2021/06/06 13:31:02;;;;;;;54.57;44.90;;;19.50;99.90;;;;;;5068876;28;20472;-87
2021/06/06 13:33:28;;;;;;;53.87;46.90;;;19.50;99.90;;;;;;5061842;28;20475;-88
2021/06/06 13:35:55;;;;;;;54.17;44.77;;;19.50;99.90;;;;;;5069235;28;20445;-87
2021/06/06 13:38:21;;;;;;;56.10;47.10;;;19.50;99.90;;;;;;5068149;28;20445;-87
2021/06/06 13:40:51;;;;;;;56.20;44.70;;;19.60;99.90;;;;;;5069516;28;20887;-88
2021/06/06 13:43:19;;;;;;;54.80;47.00;;;19.60;99.90;;;;;;5071888;28;20809;-86
2021/06/06 13:45:45;;;;;;;50.20;44.00;;;19.50;99.90;;;;;;5060673;28;20466;-88
2021/06/06 13:48:15;;;;;;;52.17;45.40;;;19.50;99.90;;;;;;5059896;28;20464;-87
2021/06/06 13:50:42;;;;;;;54.90;45.50;;;19.50;99.90;;;;;;5066305;28;20445;-87
2021/06/06 13:53:12;;;;;;;55.37;47.30;;;19.50;99.90;;;;;;5064590;28;20563;-88
2021/06/06 13:55:39;;;;;;;51.50;45.90;;;19.60;99.90;;;;;;5063053;28;20831;-89
2021/06/06 13:58:07;;;;;;;55.67;46.90;;;19.60;99.90;;;;;;5067536;28;20454;-90
2021/06/06 14:00:33;;;;;;;50.83;45.23;;;19.60;99.90;;;;;;5064830;28;20442;-86
2021/06/06 14:03:02;;;;;;;55.03;46.20;;;19.60;99.90;;;;;;5064385;28;20934;-88
2021/06/06 14:05:32;;;;;;;53.63;47.80;;;19.50;99.90;;;;;;5066605;28;20439;-88
2021/06/06 14:07:59;;;;;;;56.33;46.50;;;19.50;99.90;;;;;;5057401;28;20460;-86
2021/06/06 14:10:27;;;;;;;52.57;46.90;;;19.40;99.90;;;;;;5064842;28;20447;-88
2021/06/06 14:12:54;;;;;;;50.50;45.10;;;19.40;99.90;;;;;;5055999;28;20532;-87
2021/06/06 14:15:22;;;;;;;49.77;44.37;;;19.40;99.90;;;;;;5056445;28;20439;-87
2021/06/06 14:17:52;;;;;;;47.73;40.97;;;19.50;99.90;;;;;;5058895;28;20819;-86
2021/06/06 14:20:22;;;;;;;48.27;40.60;;;19.60;99.90;;;;;;5060480;28;20468;-87